sensor_id;sensor_type;location;lat;lon;timestamp;temperature;humidity
54158;DHT22;40065;49.894;10.358;2023-03-14T00:03:19;10.70;99.90
54158;DHT22;40065;49.894;10.358;2023-03-14T00:08:24;10.80;99.90
54158;DHT22;40065;49.894;10.358;2023-03-14T00:13:26;10.80;99.90
54158;DHT22;40065;49.894;10.358;2023-03-14T00:18:28;10.80;99.90
54158;DHT22;40065;49.894;10.358;2023-03-14T00:23:31;10.80;99.90
54158;DHT22;40065;49.894;10.358;2023-03-14T00:28:33;10.90;99.90
54158;DHT22;40065;49.894;10.358;2023-03-14T00:33:35;10.80;99.90
54158;DHT22;40065;49.894;10.358;2023-03-14T00:38:38;10.90;99.90
54158;DHT22;40065;49.894;10.358;2023-03-14T00:43:40;11.00;99.90
54158;DHT22;40065;49.894;10.358;2023-03-14T00:48:44;10.90;99.90
54158;DHT22;40065;49.894;10.358;2023-03-14T00:53:56;10.90;99.90
54158;DHT22;40065;49.894;10.358;2023-03-14T00:58:57;10.90;99.90
54158;DHT22;40065;49.894;10.358;2023-03-14T01:03:59;11.00;99.90
54158;DHT22;40065;49.894;10.358;2023-03-14T01:09:01;11.00;99.90
54158;DHT22;40065;49.894;10.358;2023-03-14T01:14:03;11.00;99.90
54158;DHT22;40065;49.894;10.358;2023-03-14T01:19:05;11.00;99.90
54158;DHT22;40065;49.894;10.358;2023-03-14T01:24:11;11.10;99.90
54158;DHT22;40065;49.894;10.358;2023-03-14T01:29:13;11.00;99.90
54158;DHT22;40065;49.894;10.358;2023-03-14T01:34:15;11.10;99.90
54158;DHT22;40065;49.894;10.358;2023-03-14T01:39:17;11.00;99.90
54158;DHT22;40065;49.894;10.358;2023-03-14T01:44:19;11.10;99.90
54158;DHT22;40065;49.894;10.358;2023-03-14T01:49:31;11.00;99.90
54158;DHT22;40065;49.894;10.358;2023-03-14T01:54:50;11.00;99.90
54158;DHT22;40065;49.894;10.358;2023-03-14T02:00:04;11.00;99.90
54158;DHT22;40065;49.894;10.358;2023-03-14T02:05:18;11.00;99.90
54158;DHT22;40065;49.894;10.358;2023-03-14T02:10:30;10.90;99.90
54158;DHT22;40065;49.894;10.358;2023-03-14T02:15:35;10.90;99.90
54158;DHT22;40065;49.894;10.358;2023-03-14T02:26:01;10.80;99.90
54158;DHT22;40065;49.894;10.358;2023-03-14T02:31:05;10.80;99.90
54158;DHT22;40065;49.894;10.358;2023-03-14T02:36:11;10.80;99.90
54158;DHT22;40065;49.894;10.358;2023-03-14T02:41:15;10.80;99.90
54158;DHT22;40065;49.894;10.358;2023-03-14T02:46:24;10.80;99.90
54158;DHT22;40065;49.894;10.358;2023-03-14T02:51:27;10.80;99.90
54158;DHT22;40065;49.894;10.358;2023-03-14T02:56:30;10.80;99.90
54158;DHT22;40065;49.894;10.358;2023-03-14T03:01:33;10.70;99.90
54158;DHT22;40065;49.894;10.358;2023-03-14T03:06:35;10.70;99.90
54158;DHT22;40065;49.894;10.358;2023-03-14T03:11:37;10.70;99.90
54158;DHT22;40065;49.894;10.358;2023-03-14T03:16:40;10.60;99.90
54158;DHT22;40065;49.894;10.358;2023-03-14T03:21:42;10.80;99.90
54158;DHT22;40065;49.894;10.358;2023-03-14T03:26:46;10.70;99.90
54158;DHT22;40065;49.894;10.358;2023-03-14T03:31:48;10.70;99.90
54158;DHT22;40065;49.894;10.358;2023-03-14T03:36:51;10.80;99.90
54158;DHT22;40065;49.894;10.358;2023-03-14T03:41:53;10.70;99.90
54158;DHT22;40065;49.894;10.358;2023-03-14T03:46:55;10.60;99.90
54158;DHT22;40065;49.894;10.358;2023-03-14T03:51:58;10.70;99.90
54158;DHT22;40065;49.894;10.358;2023-03-14T03:57:00;10.60;99.90
54158;DHT22;40065;49.894;10.358;2023-03-14T04:02:02;10.60;99.90
54158;DHT22;40065;49.894;10.358;2023-03-14T04:07:04;10.70;99.90
54158;DHT22;40065;49.894;10.358;2023-03-14T04:12:07;10.60;99.90
54158;DHT22;40065;49.894;10.358;2023-03-14T04:17:28;10.70;99.90
54158;DHT22;40065;49.894;10.358;2023-03-14T04:22:30;10.90;99.90
54158;DHT22;40065;49.894;10.358;2023-03-14T04:27:34;11.00;99.90
54158;DHT22;40065;49.894;10.358;2023-03-14T04:32:39;10.90;99.90
54158;DHT22;40065;49.894;10.358;2023-03-14T04:37:40;10.90;99.90
54158;DHT22;40065;49.894;10.358;2023-03-14T04:42:46;10.90;99.90
54158;DHT22;40065;49.894;10.358;2023-03-14T04:47:48;10.90;99.90
54158;DHT22;40065;49.894;10.358;2023-03-14T04:52:53;10.90;99.90
54158;DHT22;40065;49.894;10.358;2023-03-14T04:57:55;11.00;99.90
54158;DHT22;40065;49.894;10.358;2023-03-14T05:02:58;11.00;99.90
54158;DHT22;40065;49.894;10.358;2023-03-14T05:08:11;11.00;99.90
54158;DHT22;40065;49.894;10.358;2023-03-14T05:13:16;11.00;99.90
54158;DHT22;40065;49.894;10.358;2023-03-14T05:18:18;10.90;99.90
54158;DHT22;40065;49.894;10.358;2023-03-14T05:23:43;10.90;99.90
54158;DHT22;40065;49.894;10.358;2023-03-14T05:29:23;10.80;99.90
54158;DHT22;40065;49.894;10.358;2023-03-14T05:34:43;10.70;99.90
54158;DHT22;40065;49.894;10.358;2023-03-14T05:40:00;10.70;99.90
54158;DHT22;40065;49.894;10.358;2023-03-14T05:45:14;10.60;99.90
54158;DHT22;40065;49.894;10.358;2023-03-14T05:50:42;10.70;99.90
54158;DHT22;40065;49.894;10.358;2023-03-14T05:56:03;10.70;99.90
54158;DHT22;40065;49.894;10.358;2023-03-14T06:01:35;10.80;99.90
54158;DHT22;40065;49.894;10.358;2023-03-14T06:06:44;10.80;99.90
54158;DHT22;40065;49.894;10.358;2023-03-14T06:11:47;10.90;99.90
54158;DHT22;40065;49.894;10.358;2023-03-14T06:16:49;10.90;99.90
54158;DHT22;40065;49.894;10.358;2023-03-14T06:21:53;10.90;99.90
54158;DHT22;40065;49.894;10.358;2023-03-14T06:26:56;10.90;99.90
54158;DHT22;40065;49.894;10.358;2023-03-14T06:31:58;10.90;99.90
54158;DHT22;40065;49.894;10.358;2023-03-14T06:37:00;10.80;99.90
54158;DHT22;40065;49.894;10.358;2023-03-14T06:42:03;10.70;99.90
54158;DHT22;40065;49.894;10.358;2023-03-14T06:47:05;10.70;99.90
54158;DHT22;40065;49.894;10.358;2023-03-14T06:52:08;10.60;99.90
54158;DHT22;40065;49.894;10.358;2023-03-14T06:57:10;10.60;99.90
54158;DHT22;40065;49.894;10.358;2023-03-14T07:02:13;10.70;99.90
54158;DHT22;40065;49.894;10.358;2023-03-14T07:07:17;10.90;99.90
54158;DHT22;40065;49.894;10.358;2023-03-14T07:12:19;10.90;99.90
54158;DHT22;40065;49.894;10.358;2023-03-14T07:17:21;10.90;99.90
54158;DHT22;40065;49.894;10.358;2023-03-14T07:22:22;11.00;99.90
54158;DHT22;40065;49.894;10.358;2023-03-14T07:27:24;11.20;99.90
54158;DHT22;40065;49.894;10.358;2023-03-14T07:32:26;11.10;99.90
54158;DHT22;40065;49.894;10.358;2023-03-14T07:37:28;11.30;99.90
54158;DHT22;40065;49.894;10.358;2023-03-14T07:42:31;11.30;99.90
54158;DHT22;40065;49.894;10.358;2023-03-14T07:47:59;11.20;99.90
54158;DHT22;40065;49.894;10.358;2023-03-14T07:53:01;11.10;99.90
54158;DHT22;40065;49.894;10.358;2023-03-14T07:58:03;11.30;99.90
54158;DHT22;40065;49.894;10.358;2023-03-14T08:03:05;11.30;99.90
54158;DHT22;40065;49.894;10.358;2023-03-14T08:08:07;11.30;99.90
54158;DHT22;40065;49.894;10.358;2023-03-14T08:13:10;11.40;99.90
54158;DHT22;40065;49.894;10.358;2023-03-14T08:18:12;11.30;99.90
54158;DHT22;40065;49.894;10.358;2023-03-14T08:23:13;11.50;99.90
54158;DHT22;40065;49.894;10.358;2023-03-14T08:28:16;11.50;99.90
54158;DHT22;40065;49.894;10.358;2023-03-14T08:33:18;11.70;99.90
54158;DHT22;40065;49.894;10.358;2023-03-14T08:38:20;11.80;99.90
54158;DHT22;40065;49.894;10.358;2023-03-14T08:43:22;11.70;99.90
54158;DHT22;40065;49.894;10.358;2023-03-14T08:48:23;11.50;99.90
54158;DHT22;40065;49.894;10.358;2023-03-14T08:53:25;11.50;99.90
54158;DHT22;40065;49.894;10.358;2023-03-14T08:58:27;11.60;99.90
54158;DHT22;40065;49.894;10.358;2023-03-14T09:03:29;11.90;99.90
54158;DHT22;40065;49.894;10.358;2023-03-14T09:08:31;12.40;99.90
54158;DHT22;40065;49.894;10.358;2023-03-14T09:13:33;12.40;99.90
54158;DHT22;40065;49.894;10.358;2023-03-14T09:18:35;12.80;99.90
54158;DHT22;40065;49.894;10.358;2023-03-14T09:23:37;13.20;99.90
54158;DHT22;40065;49.894;10.358;2023-03-14T09:28:40;12.70;99.90
54158;DHT22;40065;49.894;10.358;2023-03-14T09:33:41;12.70;99.90
54158;DHT22;40065;49.894;10.358;2023-03-14T09:38:43;12.90;99.90
54158;DHT22;40065;49.894;10.358;2023-03-14T09:43:46;13.20;99.90
54158;DHT22;40065;49.894;10.358;2023-03-14T09:48:52;13.70;99.90
54158;DHT22;40065;49.894;10.358;2023-03-14T09:53:54;14.40;99.90
54158;DHT22;40065;49.894;10.358;2023-03-14T09:59:01;14.80;99.90
54158;DHT22;40065;49.894;10.358;2023-03-14T10:04:10;14.10;99.90
54158;DHT22;40065;49.894;10.358;2023-03-14T10:09:22;13.30;99.90
54158;DHT22;40065;49.894;10.358;2023-03-14T10:14:37;13.40;99.90
54158;DHT22;40065;49.894;10.358;2023-03-14T10:19:59;13.30;99.90
54158;DHT22;40065;49.894;10.358;2023-03-14T10:25:05;14.70;99.90
54158;DHT22;40065;49.894;10.358;2023-03-14T10:30:30;14.00;99.90
54158;DHT22;40065;49.894;10.358;2023-03-14T10:35:35;13.90;99.90
54158;DHT22;40065;49.894;10.358;2023-03-14T10:40:42;14.00;99.90
54158;DHT22;40065;49.894;10.358;2023-03-14T10:45:54;14.50;99.90
54158;DHT22;40065;49.894;10.358;2023-03-14T10:56:20;13.80;99.90
54158;DHT22;40065;49.894;10.358;2023-03-14T11:01:38;13.20;99.90
54158;DHT22;40065;49.894;10.358;2023-03-14T11:07:00;13.50;99.90
54158;DHT22;40065;49.894;10.358;2023-03-14T11:22:46;14.10;99.90
54158;DHT22;40065;49.894;10.358;2023-03-14T11:28:09;13.90;99.90
54158;DHT22;40065;49.894;10.358;2023-03-14T11:33:18;14.10;99.90
54158;DHT22;40065;49.894;10.358;2023-03-14T11:38:33;13.50;99.90
54158;DHT22;40065;49.894;10.358;2023-03-14T11:43:38;13.30;99.90
54158;DHT22;40065;49.894;10.358;2023-03-14T11:54:29;13.00;99.90
54158;DHT22;40065;49.894;10.358;2023-03-14T12:10:06;13.80;99.90
54158;DHT22;40065;49.894;10.358;2023-03-14T12:15:21;13.60;99.90
54158;DHT22;40065;49.894;10.358;2023-03-14T12:20:24;14.50;99.90
54158;DHT22;40065;49.894;10.358;2023-03-14T12:25:30;13.90;99.90
54158;DHT22;40065;49.894;10.358;2023-03-14T12:30:38;13.30;99.90
54158;DHT22;40065;49.894;10.358;2023-03-14T12:35:42;13.10;99.90
54158;DHT22;40065;49.894;10.358;2023-03-14T12:46:19;13.10;99.90
54158;DHT22;40065;49.894;10.358;2023-03-14T12:51:39;12.30;99.90
54158;DHT22;40065;49.894;10.358;2023-03-14T13:02:00;12.00;99.90
54158;DHT22;40065;49.894;10.358;2023-03-14T13:07:03;11.60;99.90
54158;DHT22;40065;49.894;10.358;2023-03-14T13:12:10;11.70;99.90
54158;DHT22;40065;49.894;10.358;2023-03-14T13:17:14;11.60;99.90
54158;DHT22;40065;49.894;10.358;2023-03-14T13:22:36;11.50;99.90
54158;DHT22;40065;49.894;10.358;2023-03-14T13:27:40;11.20;99.90
54158;DHT22;40065;49.894;10.358;2023-03-14T13:32:44;11.00;99.90
54158;DHT22;40065;49.894;10.358;2023-03-14T13:37:52;11.00;99.90
54158;DHT22;40065;49.894;10.358;2023-03-14T13:43:15;11.20;99.90
54158;DHT22;40065;49.894;10.358;2023-03-14T13:48:18;11.30;99.90
54158;DHT22;40065;49.894;10.358;2023-03-14T13:53:21;11.10;99.90
54158;DHT22;40065;49.894;10.358;2023-03-14T14:03:27;11.00;99.90
54158;DHT22;40065;49.894;10.358;2023-03-14T14:08:29;10.60;99.90
54158;DHT22;40065;49.894;10.358;2023-03-14T14:13:33;10.40;99.90
54158;DHT22;40065;49.894;10.358;2023-03-14T14:18:37;10.40;99.90
54158;DHT22;40065;49.894;10.358;2023-03-14T14:23:38;10.60;99.90
54158;DHT22;40065;49.894;10.358;2023-03-14T14:28:40;10.50;99.90
54158;DHT22;40065;49.894;10.358;2023-03-14T14:33:53;10.50;99.90
54158;DHT22;40065;49.894;10.358;2023-03-14T14:44:28;10.30;99.90
54158;DHT22;40065;49.894;10.358;2023-03-14T14:49:32;10.50;99.90
54158;DHT22;40065;49.894;10.358;2023-03-14T14:54:38;10.90;99.90
54158;DHT22;40065;49.894;10.358;2023-03-14T14:59:44;11.00;99.90
54158;DHT22;40065;49.894;10.358;2023-03-14T15:04:46;11.00;99.90
54158;DHT22;40065;49.894;10.358;2023-03-14T15:09:48;10.90;99.90
54158;DHT22;40065;49.894;10.358;2023-03-14T15:14:50;10.90;99.90
54158;DHT22;40065;49.894;10.358;2023-03-14T15:19:52;10.80;99.90
54158;DHT22;40065;49.894;10.358;2023-03-14T15:24:54;10.50;99.90
54158;DHT22;40065;49.894;10.358;2023-03-14T15:29:55;10.10;99.90
54158;DHT22;40065;49.894;10.358;2023-03-14T15:34:57;10.00;99.90
54158;DHT22;40065;49.894;10.358;2023-03-14T15:39:59;9.70;99.90
54158;DHT22;40065;49.894;10.358;2023-03-14T15:45:01;9.60;99.90
54158;DHT22;40065;49.894;10.358;2023-03-14T15:50:03;9.50;99.90
54158;DHT22;40065;49.894;10.358;2023-03-14T15:55:05;9.50;99.90
54158;DHT22;40065;49.894;10.358;2023-03-14T16:00:12;9.60;99.90
54158;DHT22;40065;49.894;10.358;2023-03-14T16:05:16;9.60;99.90
54158;DHT22;40065;49.894;10.358;2023-03-14T16:10:20;9.40;99.90
54158;DHT22;40065;49.894;10.358;2023-03-14T16:15:22;9.00;99.90
54158;DHT22;40065;49.894;10.358;2023-03-14T16:20:24;8.60;99.90
54158;DHT22;40065;49.894;10.358;2023-03-14T16:25:31;8.30;99.90
54158;DHT22;40065;49.894;10.358;2023-03-14T16:30:33;8.10;99.90
54158;DHT22;40065;49.894;10.358;2023-03-14T16:35:36;8.10;99.90
54158;DHT22;40065;49.894;10.358;2023-03-14T16:40:38;8.20;99.90
54158;DHT22;40065;49.894;10.358;2023-03-14T16:45:39;8.10;99.90
54158;DHT22;40065;49.894;10.358;2023-03-14T16:50:41;7.90;99.90
54158;DHT22;40065;49.894;10.358;2023-03-14T16:55:43;7.80;99.90
54158;DHT22;40065;49.894;10.358;2023-03-14T17:00:46;7.50;99.90
54158;DHT22;40065;49.894;10.358;2023-03-14T17:05:50;7.50;99.90
54158;DHT22;40065;49.894;10.358;2023-03-14T17:10:52;7.50;99.90
54158;DHT22;40065;49.894;10.358;2023-03-14T17:15:55;7.40;99.90
54158;DHT22;40065;49.894;10.358;2023-03-14T17:20:58;7.40;99.90
54158;DHT22;40065;49.894;10.358;2023-03-14T17:26:00;7.50;99.90
54158;DHT22;40065;49.894;10.358;2023-03-14T17:31:12;7.40;99.90
54158;DHT22;40065;49.894;10.358;2023-03-14T17:36:15;6.90;99.90
54158;DHT22;40065;49.894;10.358;2023-03-14T17:41:18;6.80;99.90
54158;DHT22;40065;49.894;10.358;2023-03-14T17:46:20;6.80;99.90
54158;DHT22;40065;49.894;10.358;2023-03-14T17:51:22;6.50;99.90
54158;DHT22;40065;49.894;10.358;2023-03-14T17:56:24;6.40;99.90
54158;DHT22;40065;49.894;10.358;2023-03-14T18:01:26;6.00;99.90
54158;DHT22;40065;49.894;10.358;2023-03-14T18:06:28;6.00;99.90
54158;DHT22;40065;49.894;10.358;2023-03-14T18:11:31;5.80;99.90
54158;DHT22;40065;49.894;10.358;2023-03-14T18:16:34;5.80;99.90
54158;DHT22;40065;49.894;10.358;2023-03-14T18:21:36;5.80;99.90
54158;DHT22;40065;49.894;10.358;2023-03-14T18:26:40;5.60;99.90
54158;DHT22;40065;49.894;10.358;2023-03-14T18:31:43;5.70;99.90
54158;DHT22;40065;49.894;10.358;2023-03-14T18:36:45;5.80;99.90
54158;DHT22;40065;49.894;10.358;2023-03-14T18:41:47;5.80;99.90
54158;DHT22;40065;49.894;10.358;2023-03-14T18:46:48;5.90;99.90
54158;DHT22;40065;49.894;10.358;2023-03-14T18:51:50;6.10;99.90
54158;DHT22;40065;49.894;10.358;2023-03-14T18:56:52;6.20;99.90
54158;DHT22;40065;49.894;10.358;2023-03-14T19:01:54;6.20;99.90
54158;DHT22;40065;49.894;10.358;2023-03-14T19:06:56;6.20;99.90
54158;DHT22;40065;49.894;10.358;2023-03-14T19:11:58;6.20;99.90
54158;DHT22;40065;49.894;10.358;2023-03-14T19:17:00;6.00;99.90
54158;DHT22;40065;49.894;10.358;2023-03-14T19:22:02;6.20;99.90
54158;DHT22;40065;49.894;10.358;2023-03-14T19:27:04;6.20;99.90
54158;DHT22;40065;49.894;10.358;2023-03-14T19:32:05;6.20;99.90
54158;DHT22;40065;49.894;10.358;2023-03-14T19:37:08;6.30;99.90
54158;DHT22;40065;49.894;10.358;2023-03-14T19:42:10;6.20;99.90
54158;DHT22;40065;49.894;10.358;2023-03-14T19:47:12;5.90;99.90
54158;DHT22;40065;49.894;10.358;2023-03-14T19:52:14;5.70;99.90
54158;DHT22;40065;49.894;10.358;2023-03-14T19:57:16;5.60;99.90
54158;DHT22;40065;49.894;10.358;2023-03-14T20:02:18;5.10;99.90
54158;DHT22;40065;49.894;10.358;2023-03-14T20:07:20;4.90;99.90
54158;DHT22;40065;49.894;10.358;2023-03-14T20:12:22;4.50;99.90
54158;DHT22;40065;49.894;10.358;2023-03-14T20:17:24;4.30;99.90
54158;DHT22;40065;49.894;10.358;2023-03-14T20:22:31;4.60;99.90
54158;DHT22;40065;49.894;10.358;2023-03-14T20:27:37;4.40;99.90
54158;DHT22;40065;49.894;10.358;2023-03-14T20:32:40;4.30;99.90
54158;DHT22;40065;49.894;10.358;2023-03-14T20:37:41;4.30;99.90
54158;DHT22;40065;49.894;10.358;2023-03-14T20:42:43;4.40;99.90
54158;DHT22;40065;49.894;10.358;2023-03-14T20:47:45;4.40;99.90
54158;DHT22;40065;49.894;10.358;2023-03-14T20:52:47;4.50;99.90
54158;DHT22;40065;49.894;10.358;2023-03-14T20:57:48;4.80;99.90
54158;DHT22;40065;49.894;10.358;2023-03-14T21:02:51;4.90;99.90
54158;DHT22;40065;49.894;10.358;2023-03-14T21:07:54;4.80;99.90
54158;DHT22;40065;49.894;10.358;2023-03-14T21:12:56;4.70;99.90
54158;DHT22;40065;49.894;10.358;2023-03-14T21:17:58;4.80;99.90
54158;DHT22;40065;49.894;10.358;2023-03-14T21:23:06;4.80;99.90
54158;DHT22;40065;49.894;10.358;2023-03-14T21:28:09;4.90;99.90
54158;DHT22;40065;49.894;10.358;2023-03-14T21:33:14;5.00;99.90
54158;DHT22;40065;49.894;10.358;2023-03-14T21:38:17;5.00;99.90
54158;DHT22;40065;49.894;10.358;2023-03-14T21:43:19;5.10;99.90
54158;DHT22;40065;49.894;10.358;2023-03-14T21:48:22;5.00;99.90
54158;DHT22;40065;49.894;10.358;2023-03-14T21:53:24;5.10;99.90
54158;DHT22;40065;49.894;10.358;2023-03-14T21:58:31;4.90;99.90
54158;DHT22;40065;49.894;10.358;2023-03-14T22:03:33;5.00;99.90
54158;DHT22;40065;49.894;10.358;2023-03-14T22:08:35;5.00;99.90
54158;DHT22;40065;49.894;10.358;2023-03-14T22:13:37;5.00;99.90
54158;DHT22;40065;49.894;10.358;2023-03-14T22:18:39;4.90;99.90
54158;DHT22;40065;49.894;10.358;2023-03-14T22:23:41;5.00;99.90
54158;DHT22;40065;49.894;10.358;2023-03-14T22:28:43;5.00;99.90
54158;DHT22;40065;49.894;10.358;2023-03-14T22:33:44;5.00;99.90
54158;DHT22;40065;49.894;10.358;2023-03-14T22:38:47;5.00;99.90
54158;DHT22;40065;49.894;10.358;2023-03-14T22:43:48;5.00;99.90
54158;DHT22;40065;49.894;10.358;2023-03-14T22:48:51;5.00;99.90
54158;DHT22;40065;49.894;10.358;2023-03-14T22:53:53;5.00;99.90
54158;DHT22;40065;49.894;10.358;2023-03-14T22:58:59;5.00;99.90
54158;DHT22;40065;49.894;10.358;2023-03-14T23:04:02;5.00;99.90
54158;DHT22;40065;49.894;10.358;2023-03-14T23:09:04;5.00;99.90
54158;DHT22;40065;49.894;10.358;2023-03-14T23:14:06;5.00;99.90
54158;DHT22;40065;49.894;10.358;2023-03-14T23:19:08;5.20;99.90
54158;DHT22;40065;49.894;10.358;2023-03-14T23:24:11;5.10;99.90
54158;DHT22;40065;49.894;10.358;2023-03-14T23:29:13;5.20;99.90
54158;DHT22;40065;49.894;10.358;2023-03-14T23:34:15;5.00;99.90
54158;DHT22;40065;49.894;10.358;2023-03-14T23:39:17;4.90;99.90
54158;DHT22;40065;49.894;10.358;2023-03-14T23:44:19;3.80;99.90
54158;DHT22;40065;49.894;10.358;2023-03-14T23:49:21;3.50;99.90
54158;DHT22;40065;49.894;10.358;2023-03-14T23:54:23;3.60;99.90
54158;DHT22;40065;49.894;10.358;2023-03-14T23:59:25;3.70;99.90
